sensor_id;sensor_type;location;lat;lon;timestamp;P1;durP1;ratioP1;P2;durP2;ratioP2
485;SDS011;229;48.734;9.340;2023-05-10T00:01:09;4.85;;;1.90;;
485;SDS011;229;48.734;9.340;2023-05-10T00:03:36;4.10;;;1.65;;
485;SDS011;229;48.734;9.340;2023-05-10T00:06:04;2.92;;;2.10;;
485;SDS011;229;48.734;9.340;2023-05-10T00:08:31;4.22;;;1.95;;
485;SDS011;229;48.734;9.340;2023-05-10T00:10:59;2.15;;;2.00;;
485;SDS011;229;48.734;9.340;2023-05-10T00:13:27;2.25;;;1.85;;
485;SDS011;229;48.734;9.340;2023-05-10T00:15:54;2.83;;;2.00;;
485;SDS011;229;48.734;9.340;2023-05-10T00:18:21;3.50;;;1.98;;
485;SDS011;229;48.734;9.340;2023-05-10T00:20:48;2.80;;;1.50;;
485;SDS011;229;48.734;9.340;2023-05-10T00:23:15;1.67;;;1.60;;
485;SDS011;229;48.734;9.340;2023-05-10T00:25:43;2.30;;;1.58;;
485;SDS011;229;48.734;9.340;2023-05-10T00:28:11;1.77;;;1.70;;
485;SDS011;229;48.734;9.340;2023-05-10T00:30:38;3.10;;;2.00;;
485;SDS011;229;48.734;9.340;2023-05-10T00:33:06;6.50;;;2.22;;
485;SDS011;229;48.734;9.340;2023-05-10T00:35:33;3.55;;;1.60;;
485;SDS011;229;48.734;9.340;2023-05-10T00:38:00;1.58;;;1.55;;
485;SDS011;229;48.734;9.340;2023-05-10T00:40:27;1.92;;;1.65;;
485;SDS011;229;48.734;9.340;2023-05-10T00:42:55;1.95;;;1.40;;
485;SDS011;229;48.734;9.340;2023-05-10T00:45:24;2.60;;;1.38;;
485;SDS011;229;48.734;9.340;2023-05-10T00:47:52;2.10;;;1.27;;
485;SDS011;229;48.734;9.340;2023-05-10T00:50:21;2.15;;;0.90;;
485;SDS011;229;48.734;9.340;2023-05-10T00:52:48;1.27;;;1.00;;
485;SDS011;229;48.734;9.340;2023-05-10T00:55:15;6.13;;;1.20;;
485;SDS011;229;48.734;9.340;2023-05-10T00:57:42;2.08;;;1.17;;
485;SDS011;229;48.734;9.340;2023-05-10T01:00:10;2.33;;;1.00;;
485;SDS011;229;48.734;9.340;2023-05-10T01:02:39;1.90;;;1.00;;
485;SDS011;229;48.734;9.340;2023-05-10T01:05:07;1.25;;;0.90;;
485;SDS011;229;48.734;9.340;2023-05-10T01:07:34;2.47;;;1.08;;
485;SDS011;229;48.734;9.340;2023-05-10T01:10:01;1.45;;;0.98;;
485;SDS011;229;48.734;9.340;2023-05-10T01:12:28;1.38;;;1.08;;
485;SDS011;229;48.734;9.340;2023-05-10T01:14:56;2.50;;;1.00;;
485;SDS011;229;48.734;9.340;2023-05-10T01:17:24;2.47;;;0.98;;
485;SDS011;229;48.734;9.340;2023-05-10T01:19:52;1.80;;;1.10;;
485;SDS011;229;48.734;9.340;2023-05-10T01:22:25;9.25;;;1.45;;
485;SDS011;229;48.734;9.340;2023-05-10T01:25:23;0.80;;;0.80;;
485;SDS011;229;48.734;9.340;2023-05-10T01:27:55;1.92;;;1.00;;
485;SDS011;229;48.734;9.340;2023-05-10T01:30:41;1.20;;;0.90;;
485;SDS011;229;48.734;9.340;2023-05-10T01:33:16;1.00;;;0.90;;
485;SDS011;229;48.734;9.340;2023-05-10T01:35:46;1.95;;;0.90;;
485;SDS011;229;48.734;9.340;2023-05-10T01:38:16;0.90;;;0.90;;
485;SDS011;229;48.734;9.340;2023-05-10T01:40:47;0.88;;;0.80;;
485;SDS011;229;48.734;9.340;2023-05-10T01:43:17;1.38;;;1.00;;
485;SDS011;229;48.734;9.340;2023-05-10T01:45:47;1.40;;;0.90;;
485;SDS011;229;48.734;9.340;2023-05-10T01:48:18;0.98;;;0.88;;
485;SDS011;229;48.734;9.340;2023-05-10T01:50:46;1.00;;;0.90;;
485;SDS011;229;48.734;9.340;2023-05-10T01:53:17;1.23;;;0.98;;
485;SDS011;229;48.734;9.340;2023-05-10T01:55:46;1.67;;;0.90;;
485;SDS011;229;48.734;9.340;2023-05-10T01:58:15;2.15;;;0.98;;
485;SDS011;229;48.734;9.340;2023-05-10T02:00:44;1.00;;;0.90;;
485;SDS011;229;48.734;9.340;2023-05-10T02:03:11;3.15;;;1.10;;
485;SDS011;229;48.734;9.340;2023-05-10T02:05:41;3.70;;;1.00;;
485;SDS011;229;48.734;9.340;2023-05-10T02:08:09;3.72;;;1.00;;
485;SDS011;229;48.734;9.340;2023-05-10T02:10:37;3.20;;;1.10;;
485;SDS011;229;48.734;9.340;2023-05-10T02:13:06;3.80;;;1.20;;
485;SDS011;229;48.734;9.340;2023-05-10T02:15:34;5.32;;;1.27;;
485;SDS011;229;48.734;9.340;2023-05-10T02:18:01;4.07;;;1.20;;
485;SDS011;229;48.734;9.340;2023-05-10T02:20:30;2.58;;;0.90;;
485;SDS011;229;48.734;9.340;2023-05-10T02:22:59;1.35;;;0.98;;
485;SDS011;229;48.734;9.340;2023-05-10T02:25:27;2.38;;;0.95;;
485;SDS011;229;48.734;9.340;2023-05-10T02:27:55;1.30;;;0.90;;
485;SDS011;229;48.734;9.340;2023-05-10T02:30:24;1.52;;;1.30;;
485;SDS011;229;48.734;9.340;2023-05-10T02:32:51;2.03;;;1.20;;
485;SDS011;229;48.734;9.340;2023-05-10T02:35:19;2.60;;;1.10;;
485;SDS011;229;48.734;9.340;2023-05-10T02:37:46;3.10;;;1.20;;
485;SDS011;229;48.734;9.340;2023-05-10T02:40:15;3.85;;;1.20;;
485;SDS011;229;48.734;9.340;2023-05-10T02:42:43;2.88;;;1.10;;
485;SDS011;229;48.734;9.340;2023-05-10T02:45:11;2.35;;;1.20;;
485;SDS011;229;48.734;9.340;2023-05-10T02:47:39;5.50;;;1.20;;
485;SDS011;229;48.734;9.340;2023-05-10T02:50:06;1.90;;;1.00;;
485;SDS011;229;48.734;9.340;2023-05-10T02:52:36;4.85;;;1.52;;
485;SDS011;229;48.734;9.340;2023-05-10T02:55:06;3.92;;;1.30;;
485;SDS011;229;48.734;9.340;2023-05-10T02:57:38;2.72;;;1.23;;
485;SDS011;229;48.734;9.340;2023-05-10T03:00:07;3.47;;;1.58;;
485;SDS011;229;48.734;9.340;2023-05-10T03:02:35;1.33;;;1.25;;
485;SDS011;229;48.734;9.340;2023-05-10T03:05:02;2.65;;;1.25;;
485;SDS011;229;48.734;9.340;2023-05-10T03:07:29;9.13;;;2.85;;
485;SDS011;229;48.734;9.340;2023-05-10T03:09:56;6.50;;;2.33;;
485;SDS011;229;48.734;9.340;2023-05-10T03:12:26;3.28;;;1.60;;
485;SDS011;229;48.734;9.340;2023-05-10T03:14:56;3.90;;;1.10;;
485;SDS011;229;48.734;9.340;2023-05-10T03:17:25;3.67;;;1.05;;
485;SDS011;229;48.734;9.340;2023-05-10T03:19:56;6.38;;;1.38;;
485;SDS011;229;48.734;9.340;2023-05-10T03:22:25;1.10;;;1.10;;
485;SDS011;229;48.734;9.340;2023-05-10T03:24:53;3.85;;;1.30;;
485;SDS011;229;48.734;9.340;2023-05-10T03:27:22;2.28;;;1.50;;
485;SDS011;229;48.734;9.340;2023-05-10T03:29:50;3.97;;;1.20;;
485;SDS011;229;48.734;9.340;2023-05-10T03:32:19;10.80;;;1.92;;
485;SDS011;229;48.734;9.340;2023-05-10T03:34:46;3.70;;;1.50;;
485;SDS011;229;48.734;9.340;2023-05-10T03:37:13;4.75;;;1.48;;
485;SDS011;229;48.734;9.340;2023-05-10T03:39:40;1.50;;;1.42;;
485;SDS011;229;48.734;9.340;2023-05-10T03:42:08;4.70;;;1.25;;
485;SDS011;229;48.734;9.340;2023-05-10T03:44:36;1.42;;;1.17;;
485;SDS011;229;48.734;9.340;2023-05-10T03:47:04;1.38;;;1.27;;
485;SDS011;229;48.734;9.340;2023-05-10T03:49:32;2.17;;;1.30;;
485;SDS011;229;48.734;9.340;2023-05-10T03:51:59;1.60;;;1.27;;
485;SDS011;229;48.734;9.340;2023-05-10T03:54:27;3.15;;;1.27;;
485;SDS011;229;48.734;9.340;2023-05-10T03:56:54;4.35;;;1.48;;
485;SDS011;229;48.734;9.340;2023-05-10T03:59:21;2.40;;;1.52;;
485;SDS011;229;48.734;9.340;2023-05-10T04:01:48;6.50;;;1.60;;
485;SDS011;229;48.734;9.340;2023-05-10T04:04:15;2.75;;;1.50;;
485;SDS011;229;48.734;9.340;2023-05-10T04:06:45;2.42;;;1.30;;
485;SDS011;229;48.734;9.340;2023-05-10T04:09:12;3.47;;;1.70;;
485;SDS011;229;48.734;9.340;2023-05-10T04:11:39;2.03;;;1.35;;
485;SDS011;229;48.734;9.340;2023-05-10T04:14:06;3.08;;;1.30;;
485;SDS011;229;48.734;9.340;2023-05-10T04:16:34;3.60;;;1.65;;
485;SDS011;229;48.734;9.340;2023-05-10T04:19:01;3.80;;;1.80;;
485;SDS011;229;48.734;9.340;2023-05-10T04:21:28;3.10;;;1.50;;
485;SDS011;229;48.734;9.340;2023-05-10T04:23:57;5.40;;;1.90;;
485;SDS011;229;48.734;9.340;2023-05-10T04:26:24;3.00;;;1.50;;
485;SDS011;229;48.734;9.340;2023-05-10T04:28:51;3.33;;;1.52;;
485;SDS011;229;48.734;9.340;2023-05-10T04:31:18;6.10;;;1.98;;
485;SDS011;229;48.734;9.340;2023-05-10T04:33:51;6.95;;;1.75;;
485;SDS011;229;48.734;9.340;2023-05-10T04:36:18;7.53;;;1.77;;
485;SDS011;229;48.734;9.340;2023-05-10T04:38:45;7.10;;;1.88;;
485;SDS011;229;48.734;9.340;2023-05-10T04:41:16;2.90;;;1.58;;
485;SDS011;229;48.734;9.340;2023-05-10T04:43:43;2.45;;;1.80;;
485;SDS011;229;48.734;9.340;2023-05-10T04:46:11;4.68;;;2.15;;
485;SDS011;229;48.734;9.340;2023-05-10T04:48:38;1.90;;;1.80;;
485;SDS011;229;48.734;9.340;2023-05-10T04:51:05;5.18;;;2.13;;
485;SDS011;229;48.734;9.340;2023-05-10T04:53:35;5.63;;;1.92;;
485;SDS011;229;48.734;9.340;2023-05-10T04:56:02;4.07;;;1.92;;
485;SDS011;229;48.734;9.340;2023-05-10T04:58:31;3.10;;;1.90;;
485;SDS011;229;48.734;9.340;2023-05-10T05:01:04;5.07;;;1.80;;
485;SDS011;229;48.734;9.340;2023-05-10T05:03:31;4.15;;;1.95;;
485;SDS011;229;48.734;9.340;2023-05-10T05:05:59;3.55;;;1.73;;
485;SDS011;229;48.734;9.340;2023-05-10T05:08:26;2.25;;;2.13;;
485;SDS011;229;48.734;9.340;2023-05-10T05:10:53;2.20;;;1.80;;
485;SDS011;229;48.734;9.340;2023-05-10T05:13:20;3.85;;;2.08;;
485;SDS011;229;48.734;9.340;2023-05-10T05:15:49;4.50;;;1.88;;
485;SDS011;229;48.734;9.340;2023-05-10T05:18:16;6.57;;;2.10;;
485;SDS011;229;48.734;9.340;2023-05-10T05:20:43;3.13;;;2.20;;
485;SDS011;229;48.734;9.340;2023-05-10T05:23:10;2.25;;;2.05;;
485;SDS011;229;48.734;9.340;2023-05-10T05:25:40;2.83;;;2.10;;
485;SDS011;229;48.734;9.340;2023-05-10T05:28:08;4.65;;;2.10;;
485;SDS011;229;48.734;9.340;2023-05-10T05:30:35;3.58;;;2.08;;
485;SDS011;229;48.734;9.340;2023-05-10T05:33:03;2.58;;;2.05;;
485;SDS011;229;48.734;9.340;2023-05-10T05:35:31;2.47;;;2.28;;
485;SDS011;229;48.734;9.340;2023-05-10T05:37:58;3.40;;;2.20;;
485;SDS011;229;48.734;9.340;2023-05-10T05:40:26;2.90;;;1.85;;
485;SDS011;229;48.734;9.340;2023-05-10T05:42:53;2.83;;;2.20;;
485;SDS011;229;48.734;9.340;2023-05-10T05:45:20;3.05;;;2.05;;
485;SDS011;229;48.734;9.340;2023-05-10T05:47:47;5.35;;;2.38;;
485;SDS011;229;48.734;9.340;2023-05-10T05:50:16;7.13;;;2.50;;
485;SDS011;229;48.734;9.340;2023-05-10T05:52:43;3.45;;;2.53;;
485;SDS011;229;48.734;9.340;2023-05-10T05:55:10;3.38;;;2.50;;
485;SDS011;229;48.734;9.340;2023-05-10T05:57:38;3.75;;;2.25;;
485;SDS011;229;48.734;9.340;2023-05-10T06:00:07;4.50;;;2.10;;
485;SDS011;229;48.734;9.340;2023-05-10T06:02:34;5.85;;;2.28;;
485;SDS011;229;48.734;9.340;2023-05-10T06:05:01;5.93;;;2.00;;
485;SDS011;229;48.734;9.340;2023-05-10T06:07:30;4.18;;;2.20;;
485;SDS011;229;48.734;9.340;2023-05-10T06:09:57;5.18;;;2.33;;
485;SDS011;229;48.734;9.340;2023-05-10T06:12:24;2.88;;;1.90;;
485;SDS011;229;48.734;9.340;2023-05-10T06:14:52;4.85;;;2.50;;
485;SDS011;229;48.734;9.340;2023-05-10T06:17:19;2.13;;;2.00;;
485;SDS011;229;48.734;9.340;2023-05-10T06:19:46;4.70;;;2.40;;
485;SDS011;229;48.734;9.340;2023-05-10T06:22:13;6.10;;;2.50;;
485;SDS011;229;48.734;9.340;2023-05-10T06:24:42;6.50;;;2.88;;
485;SDS011;229;48.734;9.340;2023-05-10T06:27:09;4.47;;;2.38;;
485;SDS011;229;48.734;9.340;2023-05-10T06:29:37;2.78;;;2.15;;
485;SDS011;229;48.734;9.340;2023-05-10T06:32:05;3.55;;;2.10;;
485;SDS011;229;48.734;9.340;2023-05-10T06:34:32;2.95;;;2.10;;
485;SDS011;229;48.734;9.340;2023-05-10T06:36:59;2.67;;;2.10;;
485;SDS011;229;48.734;9.340;2023-05-10T06:39:28;3.63;;;2.00;;
485;SDS011;229;48.734;9.340;2023-05-10T06:41:57;3.75;;;1.92;;
485;SDS011;229;48.734;9.340;2023-05-10T06:44:24;2.75;;;1.92;;
485;SDS011;229;48.734;9.340;2023-05-10T06:46:51;6.82;;;2.17;;
485;SDS011;229;48.734;9.340;2023-05-10T06:49:20;3.15;;;1.95;;
485;SDS011;229;48.734;9.340;2023-05-10T06:51:47;2.72;;;1.85;;
485;SDS011;229;48.734;9.340;2023-05-10T06:54:14;5.95;;;2.75;;
485;SDS011;229;48.734;9.340;2023-05-10T06:56:41;5.10;;;2.92;;
485;SDS011;229;48.734;9.340;2023-05-10T06:59:10;4.55;;;2.33;;
485;SDS011;229;48.734;9.340;2023-05-10T07:01:38;4.97;;;2.53;;
485;SDS011;229;48.734;9.340;2023-05-10T07:04:05;2.55;;;2.40;;
485;SDS011;229;48.734;9.340;2023-05-10T07:06:32;3.50;;;2.20;;
485;SDS011;229;48.734;9.340;2023-05-10T07:09:00;5.65;;;2.58;;
485;SDS011;229;48.734;9.340;2023-05-10T07:11:27;7.88;;;2.85;;
485;SDS011;229;48.734;9.340;2023-05-10T07:13:54;4.00;;;2.50;;
485;SDS011;229;48.734;9.340;2023-05-10T07:16:23;5.43;;;4.25;;
485;SDS011;229;48.734;9.340;2023-05-10T07:18:50;4.78;;;3.85;;
485;SDS011;229;48.734;9.340;2023-05-10T07:21:18;2.85;;;2.38;;
485;SDS011;229;48.734;9.340;2023-05-10T07:23:45;3.50;;;2.17;;
485;SDS011;229;48.734;9.340;2023-05-10T07:26:13;4.43;;;1.85;;
485;SDS011;229;48.734;9.340;2023-05-10T07:28:40;3.70;;;1.95;;
485;SDS011;229;48.734;9.340;2023-05-10T07:31:07;5.13;;;2.10;;
485;SDS011;229;48.734;9.340;2023-05-10T07:33:36;5.72;;;2.40;;
485;SDS011;229;48.734;9.340;2023-05-10T07:36:03;2.85;;;2.15;;
485;SDS011;229;48.734;9.340;2023-05-10T07:38:30;2.63;;;2.28;;
485;SDS011;229;48.734;9.340;2023-05-10T07:40:58;2.35;;;2.15;;
485;SDS011;229;48.734;9.340;2023-05-10T07:43:25;2.67;;;2.20;;
485;SDS011;229;48.734;9.340;2023-05-10T07:45:52;2.10;;;1.95;;
485;SDS011;229;48.734;9.340;2023-05-10T07:48:19;2.15;;;1.98;;
485;SDS011;229;48.734;9.340;2023-05-10T07:50:48;3.30;;;2.05;;
485;SDS011;229;48.734;9.340;2023-05-10T07:53:15;4.95;;;2.35;;
485;SDS011;229;48.734;9.340;2023-05-10T07:55:43;3.05;;;2.13;;
485;SDS011;229;48.734;9.340;2023-05-10T07:58:11;2.20;;;1.80;;
485;SDS011;229;48.734;9.340;2023-05-10T08:00:38;3.00;;;2.05;;
485;SDS011;229;48.734;9.340;2023-05-10T08:03:06;2.90;;;2.10;;
485;SDS011;229;48.734;9.340;2023-05-10T08:05:33;3.35;;;2.65;;
485;SDS011;229;48.734;9.340;2023-05-10T08:08:01;4.82;;;2.20;;
485;SDS011;229;48.734;9.340;2023-05-10T08:10:29;4.00;;;2.35;;
485;SDS011;229;48.734;9.340;2023-05-10T08:12:56;2.95;;;2.40;;
485;SDS011;229;48.734;9.340;2023-05-10T08:15:23;3.05;;;1.90;;
485;SDS011;229;48.734;9.340;2023-05-10T08:17:51;3.10;;;2.10;;
485;SDS011;229;48.734;9.340;2023-05-10T08:20:18;3.05;;;2.28;;
485;SDS011;229;48.734;9.340;2023-05-10T08:22:45;2.42;;;2.10;;
485;SDS011;229;48.734;9.340;2023-05-10T08:25:14;3.85;;;2.17;;
485;SDS011;229;48.734;9.340;2023-05-10T08:27:41;2.72;;;2.53;;
485;SDS011;229;48.734;9.340;2023-05-10T08:30:09;4.90;;;2.42;;
485;SDS011;229;48.734;9.340;2023-05-10T08:32:37;2.38;;;2.17;;
485;SDS011;229;48.734;9.340;2023-05-10T08:35:04;2.65;;;2.10;;
485;SDS011;229;48.734;9.340;2023-05-10T08:37:31;3.25;;;1.90;;
485;SDS011;229;48.734;9.340;2023-05-10T08:39:58;8.13;;;2.25;;
485;SDS011;229;48.734;9.340;2023-05-10T08:42:28;3.25;;;1.90;;
485;SDS011;229;48.734;9.340;2023-05-10T08:44:57;2.53;;;2.35;;
485;SDS011;229;48.734;9.340;2023-05-10T08:47:24;1.80;;;1.70;;
485;SDS011;229;48.734;9.340;2023-05-10T08:49:52;3.05;;;2.20;;
485;SDS011;229;48.734;9.340;2023-05-10T08:52:19;7.43;;;2.40;;
485;SDS011;229;48.734;9.340;2023-05-10T08:54:47;13.95;;;2.60;;
485;SDS011;229;48.734;9.340;2023-05-10T08:57:14;4.90;;;2.15;;
485;SDS011;229;48.734;9.340;2023-05-10T08:59:42;1.83;;;1.80;;
485;SDS011;229;48.734;9.340;2023-05-10T09:02:10;4.70;;;1.90;;
485;SDS011;229;48.734;9.340;2023-05-10T09:04:38;3.30;;;2.28;;
485;SDS011;229;48.734;9.340;2023-05-10T09:07:06;2.75;;;2.10;;
485;SDS011;229;48.734;9.340;2023-05-10T09:09:33;3.00;;;2.25;;
485;SDS011;229;48.734;9.340;2023-05-10T09:12:00;3.00;;;2.28;;
485;SDS011;229;48.734;9.340;2023-05-10T09:14:27;2.60;;;2.40;;
485;SDS011;229;48.734;9.340;2023-05-10T09:16:57;2.33;;;2.13;;
485;SDS011;229;48.734;9.340;2023-05-10T09:19:24;2.63;;;2.22;;
485;SDS011;229;48.734;9.340;2023-05-10T09:21:52;3.70;;;1.88;;
485;SDS011;229;48.734;9.340;2023-05-10T09:24:19;2.63;;;2.00;;
485;SDS011;229;48.734;9.340;2023-05-10T09:26:46;2.70;;;2.30;;
485;SDS011;229;48.734;9.340;2023-05-10T09:29:14;2.75;;;2.50;;
485;SDS011;229;48.734;9.340;2023-05-10T09:31:45;2.55;;;2.35;;
485;SDS011;229;48.734;9.340;2023-05-10T09:34:16;2.45;;;2.05;;
485;SDS011;229;48.734;9.340;2023-05-10T09:36:50;3.45;;;2.90;;
485;SDS011;229;48.734;9.340;2023-05-10T09:39:18;2.60;;;2.40;;
485;SDS011;229;48.734;9.340;2023-05-10T09:41:45;2.83;;;2.00;;
485;SDS011;229;48.734;9.340;2023-05-10T09:44:16;2.50;;;2.30;;
485;SDS011;229;48.734;9.340;2023-05-10T09:46:48;2.55;;;2.42;;
485;SDS011;229;48.734;9.340;2023-05-10T09:49:17;2.25;;;2.10;;
485;SDS011;229;48.734;9.340;2023-05-10T09:51:44;3.47;;;2.55;;
485;SDS011;229;48.734;9.340;2023-05-10T09:54:12;2.25;;;2.05;;
485;SDS011;229;48.734;9.340;2023-05-10T09:56:39;3.70;;;2.10;;
485;SDS011;229;48.734;9.340;2023-05-10T09:59:07;2.75;;;2.10;;
485;SDS011;229;48.734;9.340;2023-05-10T10:01:34;2.80;;;2.10;;
485;SDS011;229;48.734;9.340;2023-05-10T10:04:02;2.47;;;2.15;;
485;SDS011;229;48.734;9.340;2023-05-10T10:06:35;2.83;;;2.50;;
485;SDS011;229;48.734;9.340;2023-05-10T10:09:03;2.30;;;1.90;;
485;SDS011;229;48.734;9.340;2023-05-10T10:11:31;1.90;;;1.83;;
485;SDS011;229;48.734;9.340;2023-05-10T10:13:58;2.50;;;2.08;;
485;SDS011;229;48.734;9.340;2023-05-10T10:16:26;8.57;;;2.20;;
485;SDS011;229;48.734;9.340;2023-05-10T10:18:53;2.75;;;2.20;;
485;SDS011;229;48.734;9.340;2023-05-10T10:21:21;3.20;;;2.27;;
485;SDS011;229;48.734;9.340;2023-05-10T10:23:50;2.78;;;2.50;;
485;SDS011;229;48.734;9.340;2023-05-10T10:26:18;2.50;;;2.40;;
485;SDS011;229;48.734;9.340;2023-05-10T10:28:47;3.43;;;1.97;;
485;SDS011;229;48.734;9.340;2023-05-10T10:31:17;2.33;;;2.13;;
485;SDS011;229;48.734;9.340;2023-05-10T10:33:51;3.15;;;2.05;;
485;SDS011;229;48.734;9.340;2023-05-10T10:36:22;4.90;;;2.55;;
485;SDS011;229;48.734;9.340;2023-05-10T10:38:56;2.30;;;2.10;;
485;SDS011;229;48.734;9.340;2023-05-10T10:41:29;2.43;;;2.13;;
485;SDS011;229;48.734;9.340;2023-05-10T10:49:34;2.30;;;2.17;;
485;SDS011;229;48.734;9.340;2023-05-10T10:52:13;2.70;;;2.20;;
485;SDS011;229;48.734;9.340;2023-05-10T10:54:42;2.30;;;2.10;;
485;SDS011;229;48.734;9.340;2023-05-10T10:57:14;2.00;;;1.90;;
485;SDS011;229;48.734;9.340;2023-05-10T10:59:41;2.60;;;2.40;;
485;SDS011;229;48.734;9.340;2023-05-10T11:02:09;2.80;;;2.60;;
485;SDS011;229;48.734;9.340;2023-05-10T11:04:42;2.70;;;2.50;;
485;SDS011;229;48.734;9.340;2023-05-10T11:07:17;2.95;;;2.70;;
485;SDS011;229;48.734;9.340;2023-05-10T11:09:47;2.43;;;2.27;;
485;SDS011;229;48.734;9.340;2023-05-10T11:12:15;2.50;;;2.30;;
485;SDS011;229;48.734;9.340;2023-05-10T11:14:42;2.97;;;2.70;;
485;SDS011;229;48.734;9.340;2023-05-10T11:17:25;2.60;;;2.40;;
485;SDS011;229;48.734;9.340;2023-05-10T11:20:06;2.70;;;2.50;;
485;SDS011;229;48.734;9.340;2023-05-10T11:22:48;2.53;;;2.33;;
485;SDS011;229;48.734;9.340;2023-05-10T11:25:17;3.83;;;2.42;;
485;SDS011;229;48.734;9.340;2023-05-10T11:27:45;2.73;;;2.53;;
485;SDS011;229;48.734;9.340;2023-05-10T11:30:12;3.13;;;2.97;;
485;SDS011;229;48.734;9.340;2023-05-10T11:32:39;3.25;;;3.05;;
485;SDS011;229;48.734;9.340;2023-05-10T11:35:07;4.18;;;2.80;;
485;SDS011;229;48.734;9.340;2023-05-10T11:37:35;2.85;;;2.67;;
485;SDS011;229;48.734;9.340;2023-05-10T11:40:03;6.35;;;2.70;;
485;SDS011;229;48.734;9.340;2023-05-10T11:42:31;3.65;;;2.28;;
485;SDS011;229;48.734;9.340;2023-05-10T11:45:00;3.10;;;2.90;;
485;SDS011;229;48.734;9.340;2023-05-10T11:47:27;3.00;;;2.80;;
485;SDS011;229;48.734;9.340;2023-05-10T11:49:54;3.83;;;2.55;;
485;SDS011;229;48.734;9.340;2023-05-10T11:52:21;2.50;;;2.30;;
485;SDS011;229;48.734;9.340;2023-05-10T11:54:50;5.93;;;2.75;;
485;SDS011;229;48.734;9.340;2023-05-10T11:57:18;4.05;;;2.80;;
485;SDS011;229;48.734;9.340;2023-05-10T11:59:46;5.40;;;3.15;;
485;SDS011;229;48.734;9.340;2023-05-10T12:02:13;2.92;;;2.78;;
485;SDS011;229;48.734;9.340;2023-05-10T12:04:41;7.03;;;3.33;;
485;SDS011;229;48.734;9.340;2023-05-10T12:07:08;4.93;;;2.80;;
485;SDS011;229;48.734;9.340;2023-05-10T12:09:36;4.35;;;3.05;;
485;SDS011;229;48.734;9.340;2023-05-10T12:12:03;3.15;;;2.95;;
485;SDS011;229;48.734;9.340;2023-05-10T12:14:33;2.95;;;2.75;;
485;SDS011;229;48.734;9.340;2023-05-10T12:17:02;4.47;;;3.97;;
485;SDS011;229;48.734;9.340;2023-05-10T12:19:36;3.63;;;3.25;;
485;SDS011;229;48.734;9.340;2023-05-10T12:22:04;3.05;;;2.85;;
485;SDS011;229;48.734;9.340;2023-05-10T12:24:33;8.80;;;3.25;;
485;SDS011;229;48.734;9.340;2023-05-10T12:27:04;2.30;;;2.10;;
485;SDS011;229;48.734;9.340;2023-05-10T12:29:33;4.90;;;3.28;;
485;SDS011;229;48.734;9.340;2023-05-10T12:32:01;2.58;;;2.38;;
485;SDS011;229;48.734;9.340;2023-05-10T12:34:30;4.22;;;2.85;;
485;SDS011;229;48.734;9.340;2023-05-10T12:36:58;4.20;;;2.50;;
485;SDS011;229;48.734;9.340;2023-05-10T12:39:25;4.45;;;2.55;;
485;SDS011;229;48.734;9.340;2023-05-10T12:41:52;3.42;;;3.08;;
485;SDS011;229;48.734;9.340;2023-05-10T12:44:20;4.28;;;2.60;;
485;SDS011;229;48.734;9.340;2023-05-10T12:46:47;7.60;;;2.75;;
485;SDS011;229;48.734;9.340;2023-05-10T12:49:15;3.28;;;2.75;;
485;SDS011;229;48.734;9.340;2023-05-10T12:51:43;3.38;;;2.70;;
485;SDS011;229;48.734;9.340;2023-05-10T12:54:11;3.40;;;2.45;;
485;SDS011;229;48.734;9.340;2023-05-10T12:56:39;3.95;;;2.97;;
485;SDS011;229;48.734;9.340;2023-05-10T12:59:07;4.63;;;3.17;;
485;SDS011;229;48.734;9.340;2023-05-10T13:01:34;3.42;;;3.00;;
485;SDS011;229;48.734;9.340;2023-05-10T13:04:02;4.65;;;3.30;;
485;SDS011;229;48.734;9.340;2023-05-10T13:06:30;5.53;;;2.92;;
485;SDS011;229;48.734;9.340;2023-05-10T13:08:57;3.90;;;3.22;;
485;SDS011;229;48.734;9.340;2023-05-10T13:11:24;2.53;;;2.30;;
485;SDS011;229;48.734;9.340;2023-05-10T13:13:52;4.50;;;2.72;;
485;SDS011;229;48.734;9.340;2023-05-10T13:16:19;3.38;;;2.50;;
485;SDS011;229;48.734;9.340;2023-05-10T13:18:46;2.90;;;2.75;;
485;SDS011;229;48.734;9.340;2023-05-10T13:21:13;4.75;;;3.03;;
485;SDS011;229;48.734;9.340;2023-05-10T13:23:43;5.07;;;2.92;;
485;SDS011;229;48.734;9.340;2023-05-10T13:26:11;5.07;;;2.88;;
485;SDS011;229;48.734;9.340;2023-05-10T13:28:38;4.38;;;3.30;;
485;SDS011;229;48.734;9.340;2023-05-10T13:31:07;7.60;;;3.30;;
485;SDS011;229;48.734;9.340;2023-05-10T13:33:34;4.20;;;3.00;;
485;SDS011;229;48.734;9.340;2023-05-10T13:36:01;9.95;;;3.83;;
485;SDS011;229;48.734;9.340;2023-05-10T13:38:28;4.78;;;2.95;;
485;SDS011;229;48.734;9.340;2023-05-10T13:40:57;5.10;;;3.20;;
485;SDS011;229;48.734;9.340;2023-05-10T13:43:24;4.05;;;3.45;;
485;SDS011;229;48.734;9.340;2023-05-10T13:45:51;6.05;;;3.47;;
485;SDS011;229;48.734;9.340;2023-05-10T13:48:18;4.22;;;2.60;;
485;SDS011;229;48.734;9.340;2023-05-10T13:50:46;4.68;;;2.47;;
485;SDS011;229;48.734;9.340;2023-05-10T13:53:13;2.45;;;2.30;;
485;SDS011;229;48.734;9.340;2023-05-10T13:55:40;4.43;;;2.53;;
485;SDS011;229;48.734;9.340;2023-05-10T13:58:09;7.03;;;2.92;;
485;SDS011;229;48.734;9.340;2023-05-10T14:00:36;3.35;;;2.60;;
485;SDS011;229;48.734;9.340;2023-05-10T14:03:03;3.42;;;2.30;;
485;SDS011;229;48.734;9.340;2023-05-10T14:05:31;3.08;;;2.42;;
485;SDS011;229;48.734;9.340;2023-05-10T14:07:58;2.92;;;2.35;;
485;SDS011;229;48.734;9.340;2023-05-10T14:10:25;8.15;;;3.10;;
485;SDS011;229;48.734;9.340;2023-05-10T14:12:52;4.95;;;3.55;;
485;SDS011;229;48.734;9.340;2023-05-10T14:15:21;4.88;;;3.20;;
485;SDS011;229;48.734;9.340;2023-05-10T14:17:48;7.13;;;2.72;;
485;SDS011;229;48.734;9.340;2023-05-10T14:20:16;3.42;;;2.47;;
485;SDS011;229;48.734;9.340;2023-05-10T14:22:43;5.22;;;3.10;;
485;SDS011;229;48.734;9.340;2023-05-10T14:25:10;3.47;;;2.85;;
485;SDS011;229;48.734;9.340;2023-05-10T14:27:37;4.03;;;2.65;;
485;SDS011;229;48.734;9.340;2023-05-10T14:30:05;4.10;;;2.65;;
485;SDS011;229;48.734;9.340;2023-05-10T14:32:34;3.65;;;2.70;;
485;SDS011;229;48.734;9.340;2023-05-10T14:35:01;5.30;;;2.83;;
485;SDS011;229;48.734;9.340;2023-05-10T14:37:28;3.00;;;2.60;;
485;SDS011;229;48.734;9.340;2023-05-10T14:39:56;3.25;;;2.70;;
485;SDS011;229;48.734;9.340;2023-05-10T14:42:23;10.25;;;2.95;;
485;SDS011;229;48.734;9.340;2023-05-10T14:44:50;8.70;;;3.72;;
485;SDS011;229;48.734;9.340;2023-05-10T14:47:17;4.57;;;2.92;;
485;SDS011;229;48.734;9.340;2023-05-10T14:49:46;4.53;;;3.00;;
485;SDS011;229;48.734;9.340;2023-05-10T14:52:13;5.65;;;2.72;;
485;SDS011;229;48.734;9.340;2023-05-10T14:54:40;5.43;;;2.63;;
485;SDS011;229;48.734;9.340;2023-05-10T14:57:07;5.18;;;2.80;;
485;SDS011;229;48.734;9.340;2023-05-10T14:59:35;2.60;;;2.40;;
485;SDS011;229;48.734;9.340;2023-05-10T15:02:02;2.75;;;2.47;;
485;SDS011;229;48.734;9.340;2023-05-10T15:04:29;5.28;;;2.67;;
485;SDS011;229;48.734;9.340;2023-05-10T15:06:57;3.33;;;2.70;;
485;SDS011;229;48.734;9.340;2023-05-10T15:09:25;2.97;;;2.70;;
485;SDS011;229;48.734;9.340;2023-05-10T15:11:53;4.75;;;2.70;;
485;SDS011;229;48.734;9.340;2023-05-10T15:14:20;7.25;;;2.75;;
485;SDS011;229;48.734;9.340;2023-05-10T15:16:47;6.70;;;2.72;;
485;SDS011;229;48.734;9.340;2023-05-10T15:19:14;2.80;;;2.30;;
485;SDS011;229;48.734;9.340;2023-05-10T15:21:41;3.20;;;3.00;;
485;SDS011;229;48.734;9.340;2023-05-10T15:24:11;4.35;;;2.30;;
485;SDS011;229;48.734;9.340;2023-05-10T15:26:38;4.00;;;2.60;;
485;SDS011;229;48.734;9.340;2023-05-10T15:29:05;8.90;;;2.90;;
485;SDS011;229;48.734;9.340;2023-05-10T15:31:32;5.80;;;2.37;;
485;SDS011;229;48.734;9.340;2023-05-10T15:34:00;5.30;;;3.17;;
485;SDS011;229;48.734;9.340;2023-05-10T15:36:28;4.20;;;2.90;;
485;SDS011;229;48.734;9.340;2023-05-10T15:38:55;2.95;;;2.80;;
485;SDS011;229;48.734;9.340;2023-05-10T15:41:23;5.20;;;3.15;;
485;SDS011;229;48.734;9.340;2023-05-10T15:43:51;5.68;;;3.00;;
485;SDS011;229;48.734;9.340;2023-05-10T15:46:18;4.40;;;2.90;;
485;SDS011;229;48.734;9.340;2023-05-10T15:48:45;3.77;;;2.80;;
485;SDS011;229;48.734;9.340;2023-05-10T15:51:12;4.97;;;3.30;;
485;SDS011;229;48.734;9.340;2023-05-10T15:53:41;5.13;;;3.10;;
485;SDS011;229;48.734;9.340;2023-05-10T15:56:08;3.03;;;2.70;;